createdAt,value
2022-09-09T00:00:31.196Z,20.60
2022-09-09T00:03:08.949Z,20.60
2022-09-09T00:05:46.251Z,20.60
2022-09-09T00:08:20.727Z,20.60
2022-09-09T00:10:54.214Z,20.60
2022-09-09T00:13:30.270Z,20.60
2022-09-09T00:16:06.020Z,20.60
2022-09-09T00:18:54.431Z,20.60
2022-09-09T00:21:27.863Z,20.60
2022-09-09T00:23:56.752Z,20.60
2022-09-09T00:26:36.258Z,20.60
2022-09-09T00:29:15.259Z,20.60
2022-09-09T00:31:44.882Z,20.60
2022-09-09T00:34:15.904Z,20.60
2022-09-09T00:36:45.624Z,20.60
2022-09-09T00:39:31.943Z,20.70
2022-09-09T00:42:14.459Z,20.50
2022-09-09T00:44:54.211Z,20.50
2022-09-09T00:47:48.246Z,20.50
2022-09-09T00:50:37.130Z,20.50
2022-09-09T00:53:20.580Z,20.50
2022-09-09T00:55:54.278Z,20.50
2022-09-09T00:58:22.848Z,20.50
2022-09-09T01:00:57.883Z,20.50
2022-09-09T01:03:35.551Z,20.50
2022-09-09T01:06:14.330Z,20.50
2022-09-09T01:09:04.701Z,20.50
2022-09-09T01:11:40.043Z,20.50
2022-09-09T01:14:21.025Z,20.50
2022-09-09T01:16:50.017Z,20.50
2022-09-09T01:19:28.191Z,20.50
2022-09-09T01:22:03.189Z,20.50
2022-09-09T01:24:42.995Z,20.50
2022-09-09T01:27:21.839Z,20.40
2022-09-09T01:29:50.593Z,20.50
2022-09-09T01:32:41.038Z,20.40
2022-09-09T01:35:14.880Z,20.40
2022-09-09T01:37:43.599Z,20.40
2022-09-09T01:40:11.892Z,20.40
2022-09-09T01:42:42.360Z,20.40
2022-09-09T01:45:11.471Z,20.40
2022-09-09T01:47:39.910Z,20.40
2022-09-09T01:50:20.209Z,20.40
2022-09-09T01:52:52.608Z,20.30
2022-09-09T01:55:31.920Z,20.40
2022-09-09T01:58:22.392Z,20.30
2022-09-09T02:01:03.914Z,20.30
2022-09-09T02:03:35.566Z,20.30
2022-09-09T02:06:24.798Z,20.30
2022-09-09T02:08:58.938Z,20.30
2022-09-09T02:11:29.466Z,20.30
2022-09-09T02:14:10.320Z,20.30
2022-09-09T02:16:46.394Z,20.30
2022-09-09T02:19:22.188Z,20.30
2022-09-09T02:22:02.754Z,20.30
2022-09-09T02:24:34.149Z,20.30
2022-09-09T02:27:20.323Z,20.20
2022-09-09T02:29:51.767Z,20.20
2022-09-09T02:32:26.891Z,20.20
2022-09-09T02:35:00.298Z,20.20
2022-09-09T02:37:34.399Z,20.30
2022-09-09T02:40:02.980Z,20.20
2022-09-09T02:42:33.046Z,20.20
2022-09-09T02:45:04.838Z,20.20
2022-09-09T02:47:37.676Z,20.20
2022-09-09T02:50:17.816Z,20.20
2022-09-09T02:52:56.792Z,20.20
2022-09-09T02:55:37.572Z,20.20
2022-09-09T02:58:09.393Z,20.20
2022-09-09T03:00:40.472Z,20.20
2022-09-09T03:03:11.145Z,20.20
2022-09-09T03:05:44.159Z,20.20
2022-09-09T03:08:15.175Z,20.20
2022-09-09T03:10:45.214Z,20.20
2022-09-09T03:13:16.654Z,20.10
2022-09-09T03:15:47.186Z,20.20
2022-09-09T03:18:18.877Z,20.20
2022-09-09T03:20:52.049Z,20.10
2022-09-09T03:23:21.634Z,20.10
2022-09-09T03:25:50.870Z,20.10
2022-09-09T03:28:22.804Z,20.10
2022-09-09T03:30:53.399Z,20.10
2022-09-09T03:33:22.095Z,20.10
2022-09-09T03:35:50.466Z,20.10
2022-09-09T03:38:20.918Z,20.10
2022-09-09T03:40:56.072Z,20.10
2022-09-09T03:43:25.531Z,20.10
2022-09-09T03:45:57.886Z,20.20
2022-09-09T03:48:29.224Z,20.20
2022-09-09T03:50:58.880Z,20.20
2022-09-09T03:53:27.479Z,20.20
2022-09-09T03:56:00.389Z,20.20
2022-09-09T03:58:29.931Z,20.20
2022-09-09T04:01:07.211Z,20.20
2022-09-09T04:03:35.794Z,20.10
2022-09-09T04:06:05.880Z,20.10
2022-09-09T04:08:34.704Z,20.10
2022-09-09T04:11:07.211Z,20.10
2022-09-09T04:13:38.642Z,20.20
2022-09-09T04:16:09.317Z,20.10
2022-09-09T04:18:38.770Z,20.10
2022-09-09T04:21:07.999Z,20.10
2022-09-09T04:23:37.319Z,20.20
2022-09-09T04:26:06.992Z,20.10
2022-09-09T04:28:37.511Z,20.10
2022-09-09T04:31:12.532Z,20.10
2022-09-09T04:33:42.156Z,20.10
2022-09-09T04:36:12.033Z,20.10
2022-09-09T04:38:40.353Z,20.10
2022-09-09T04:41:09.198Z,20.10
2022-09-09T04:43:39.236Z,20.10
2022-09-09T04:46:12.318Z,20.20
2022-09-09T04:48:41.084Z,20.10
2022-09-09T04:51:14.385Z,20.20
2022-09-09T04:53:43.261Z,20.20
2022-09-09T04:56:15.375Z,20.10
2022-09-09T04:58:51.796Z,20.20
2022-09-09T05:01:25.664Z,20.10
2022-09-09T05:03:57.233Z,20.20
2022-09-09T05:06:25.761Z,20.20
2022-09-09T05:09:00.722Z,20.20
2022-09-09T05:11:33.595Z,20.20
2022-09-09T05:14:07.896Z,20.20
2022-09-09T05:16:38.611Z,20.20
2022-09-09T05:19:09.003Z,20.20
2022-09-09T05:21:45.203Z,20.20
2022-09-09T05:24:13.848Z,20.20
2022-09-09T05:26:42.914Z,20.20
2022-09-09T05:29:11.201Z,20.20
2022-09-09T05:31:42.465Z,20.20
2022-09-09T05:34:14.460Z,20.20
2022-09-09T05:36:42.790Z,20.20
2022-09-09T05:39:12.968Z,20.20
2022-09-09T05:41:41.159Z,20.20
2022-09-09T05:44:10.401Z,20.20
2022-09-09T05:46:42.355Z,20.20
2022-09-09T05:49:11.247Z,20.20
2022-09-09T05:51:41.569Z,20.20
2022-09-09T05:54:15.719Z,20.20
2022-09-09T05:56:51.446Z,20.20
2022-09-09T05:59:20.174Z,20.20
2022-09-09T06:01:49.790Z,20.20
2022-09-09T06:04:25.278Z,20.20
2022-09-09T06:06:53.603Z,20.20
2022-09-09T06:09:23.924Z,20.20
2022-09-09T06:11:52.070Z,20.20
2022-09-09T06:14:22.848Z,20.20
2022-09-09T06:16:54.184Z,20.20
2022-09-09T06:19:27.873Z,20.10
2022-09-09T06:21:59.491Z,20.20
2022-09-09T06:24:31.055Z,20.20
2022-09-09T06:26:59.976Z,20.20
2022-09-09T06:29:31.905Z,20.10
2022-09-09T06:32:01.670Z,20.10
2022-09-09T06:34:30.025Z,20.10
2022-09-09T06:37:00.220Z,20.10
2022-09-09T06:39:36.703Z,20.10
2022-09-09T06:42:05.742Z,20.10
2022-09-09T06:44:56.951Z,20.10
2022-09-09T06:47:49.346Z,20.10
2022-09-09T06:50:17.688Z,20.10
2022-09-09T06:52:48.623Z,20.10
2022-09-09T06:55:18.687Z,20.10
2022-09-09T06:57:47.708Z,20.10
2022-09-09T07:00:23.491Z,20.10
2022-09-09T07:02:54.603Z,20.10
2022-09-09T07:05:23.139Z,20.10
2022-09-09T07:07:55.713Z,20.10
2022-09-09T07:10:25.231Z,20.10
2022-09-09T07:12:54.092Z,20.10
2022-09-09T07:15:25.099Z,20.10
2022-09-09T07:17:54.919Z,20.10
2022-09-09T07:20:23.414Z,20.10
2022-09-09T07:22:52.147Z,20.10
2022-09-09T07:25:21.897Z,20.10
2022-09-09T07:27:50.555Z,20.10
2022-09-09T07:30:24.353Z,20.10
2022-09-09T07:33:00.179Z,20.10
2022-09-09T07:35:28.850Z,20.10
2022-09-09T07:37:57.122Z,20.10
2022-09-09T07:40:25.517Z,20.10
2022-09-09T07:42:54.702Z,20.10
2022-09-09T07:45:23.288Z,20.00
2022-09-09T07:47:52.122Z,20.00
2022-09-09T07:50:21.864Z,20.10
2022-09-09T07:52:50.046Z,20.10
2022-09-09T07:55:18.557Z,20.10
2022-09-09T07:57:46.913Z,20.10
2022-09-09T08:00:17.233Z,20.10
2022-09-09T08:02:51.672Z,20.10
2022-09-09T08:05:23.346Z,20.10
2022-09-09T08:07:51.788Z,20.10
2022-09-09T08:10:20.385Z,20.10
2022-09-09T08:13:01.767Z,20.10
2022-09-09T08:15:36.377Z,20.20
2022-09-09T08:18:06.474Z,20.20
2022-09-09T08:20:38.289Z,20.20
2022-09-09T08:23:06.905Z,20.20
2022-09-09T08:25:35.595Z,20.30
2022-09-09T08:28:04.652Z,20.30
2022-09-09T08:30:33.780Z,20.30
2022-09-09T08:33:02.166Z,20.30
2022-09-09T08:35:33.470Z,20.30
2022-09-09T08:38:06.497Z,20.30
2022-09-09T08:40:46.402Z,20.40
2022-09-09T08:43:18.680Z,20.40
2022-09-09T08:45:56.482Z,20.40
2022-09-09T08:48:46.173Z,20.40
2022-09-09T08:51:15.760Z,20.40
2022-09-09T08:53:51.259Z,20.40
2022-09-09T08:56:23.492Z,20.50
2022-09-09T08:58:56.703Z,20.40
2022-09-09T09:01:52.156Z,20.50
2022-09-09T09:04:46.838Z,20.50
2022-09-09T09:07:32.133Z,20.40
2022-09-09T09:10:30.512Z,20.40
2022-09-09T09:13:02.649Z,20.50
2022-09-09T09:15:38.245Z,20.40
2022-09-09T09:18:09.520Z,20.50
2022-09-09T09:20:44.972Z,20.40
2022-09-09T09:23:23.327Z,20.50
2022-09-09T09:26:01.628Z,20.50
2022-09-09T09:28:34.145Z,20.50
2022-09-09T09:31:12.676Z,20.50
2022-09-09T09:33:49.348Z,20.50
2022-09-09T09:36:18.080Z,20.50
2022-09-09T09:41:48.275Z,20.60
2022-09-09T09:44:29.470Z,20.60
2022-09-09T09:47:11.804Z,20.60
2022-09-09T09:49:40.635Z,20.60
2022-09-09T09:52:15.758Z,20.60
2022-09-09T09:54:44.511Z,20.70
2022-09-09T09:57:16.121Z,20.70
2022-09-09T09:59:47.781Z,20.70
2022-09-09T10:02:27.684Z,20.70
2022-09-09T10:05:07.112Z,20.70
2022-09-09T10:07:38.392Z,20.70
2022-09-09T10:10:08.149Z,20.80
2022-09-09T10:12:48.041Z,20.80
2022-09-09T10:15:33.747Z,20.80
2022-09-09T10:18:16.002Z,20.80
2022-09-09T10:20:53.144Z,20.80
2022-09-09T10:23:33.999Z,20.80
2022-09-09T10:26:17.407Z,20.80
2022-09-09T10:29:14.626Z,20.80
2022-09-09T10:31:54.590Z,20.80
2022-09-09T10:34:36.240Z,20.80
2022-09-09T10:37:09.755Z,20.80
2022-09-09T10:39:43.199Z,20.80
2022-09-09T10:42:14.635Z,20.80
2022-09-09T10:44:58.565Z,20.80
2022-09-09T10:47:44.982Z,20.90
2022-09-09T10:51:00.636Z,20.80
2022-09-09T10:53:36.241Z,20.80
2022-09-09T10:56:09.134Z,20.80
2022-09-09T10:58:43.680Z,20.80
2022-09-09T11:01:18.892Z,20.90
2022-09-09T11:03:54.607Z,20.80
2022-09-09T11:06:29.148Z,20.90
2022-09-09T11:09:02.298Z,20.80
2022-09-09T11:11:36.356Z,20.90
2022-09-09T11:14:10.508Z,20.90
2022-09-09T11:16:44.519Z,20.90
2022-09-09T11:19:18.469Z,20.90
2022-09-09T11:21:48.893Z,20.90
2022-09-09T11:24:23.647Z,20.90
2022-09-09T11:26:56.346Z,20.60
2022-09-09T11:30:02.223Z,20.90
2022-09-09T11:33:00.030Z,21.00
2022-09-09T11:35:36.858Z,21.00
2022-09-09T11:38:23.413Z,21.00
2022-09-09T11:41:00.377Z,21.00
2022-09-09T11:43:33.334Z,21.00
2022-09-09T11:46:04.208Z,21.00
2022-09-09T11:48:37.686Z,21.00
2022-09-09T11:51:13.283Z,21.00
2022-09-09T11:53:53.058Z,21.00
2022-09-09T11:56:30.845Z,21.00
2022-09-09T11:59:03.812Z,21.00
2022-09-09T12:01:43.818Z,21.00
2022-09-09T12:04:22.416Z,21.00
2022-09-09T12:06:53.720Z,21.00
2022-09-09T12:09:28.899Z,21.00
2022-09-09T12:12:07.826Z,21.00
2022-09-09T12:14:45.233Z,21.00
2022-09-09T12:17:21.942Z,21.00
2022-09-09T12:20:05.503Z,21.00
2022-09-09T12:22:43.020Z,21.00
2022-09-09T12:25:24.949Z,21.00
2022-09-09T12:28:06.330Z,21.00
2022-09-09T12:30:41.803Z,20.90
2022-09-09T12:33:14.852Z,20.90
2022-09-09T12:35:46.856Z,20.80
2022-09-09T12:38:17.732Z,20.80
2022-09-09T12:40:56.714Z,20.90
2022-09-09T12:43:26.207Z,20.70
2022-09-09T12:45:58.941Z,20.60
2022-09-09T12:48:33.474Z,20.60
2022-09-09T12:51:04.328Z,20.50
2022-09-09T12:53:35.849Z,20.50
2022-09-09T12:56:08.944Z,20.50
2022-09-09T12:58:41.279Z,20.40
2022-09-09T13:01:24.163Z,20.40
2022-09-09T13:03:52.522Z,20.40
2022-09-09T13:06:29.087Z,20.40
2022-09-09T13:08:59.751Z,20.40
2022-09-09T13:11:31.353Z,20.40
2022-09-09T13:14:00.495Z,20.40
2022-09-09T13:16:32.912Z,20.40
2022-09-09T13:19:03.609Z,20.50
2022-09-09T13:21:38.399Z,20.50
2022-09-09T13:24:08.502Z,20.60
2022-09-09T13:26:37.104Z,20.60
2022-09-09T13:29:22.342Z,20.60
2022-09-09T13:31:53.639Z,20.60
2022-09-09T13:34:30.623Z,20.70
2022-09-09T13:37:04.482Z,20.70
2022-09-09T13:39:32.648Z,20.70
2022-09-09T13:42:00.746Z,20.80
2022-09-09T13:44:32.616Z,20.80
2022-09-09T13:47:09.601Z,20.80
2022-09-09T13:49:38.609Z,20.90
2022-09-09T13:52:12.324Z,20.90
2022-09-09T13:54:40.637Z,20.90
2022-09-09T13:57:19.096Z,21.00
2022-09-09T14:00:04.077Z,21.00
2022-09-09T14:02:33.263Z,21.00
2022-09-09T14:05:01.552Z,21.10
2022-09-09T14:07:31.181Z,21.10
2022-09-09T14:10:01.327Z,21.20
2022-09-09T14:12:30.043Z,21.20
2022-09-09T14:14:58.151Z,21.20
2022-09-09T14:17:28.504Z,21.20
2022-09-09T14:19:57.090Z,21.10
2022-09-09T14:22:26.383Z,21.00
2022-09-09T14:24:55.817Z,20.90
2022-09-09T14:27:23.949Z,20.80
2022-09-09T14:29:52.144Z,20.70
2022-09-09T14:32:20.705Z,20.60
2022-09-09T14:34:50.738Z,20.50
2022-09-09T14:37:19.117Z,20.40
2022-09-09T14:39:48.111Z,20.40
2022-09-09T14:42:17.605Z,20.30
2022-09-09T14:44:45.720Z,20.30
2022-09-09T14:47:14.022Z,20.20
2022-09-09T14:49:45.084Z,20.20
2022-09-09T14:52:15.325Z,20.10
2022-09-09T14:54:43.513Z,20.10
2022-09-09T14:57:11.776Z,20.10
2022-09-09T14:59:41.222Z,20.50
2022-09-09T15:02:10.890Z,20.10
2022-09-09T15:04:39.144Z,20.10
2022-09-09T15:07:07.324Z,20.10
2022-09-09T15:09:35.443Z,20.10
2022-09-09T15:12:03.919Z,20.10
2022-09-09T15:14:32.345Z,20.10
2022-09-09T15:17:02.139Z,20.20
2022-09-09T15:19:30.267Z,20.20
2022-09-09T15:21:58.357Z,20.20
2022-09-09T15:24:26.864Z,20.30
2022-09-09T15:26:55.214Z,20.30
2022-09-09T15:29:23.490Z,20.30
2022-09-09T15:31:51.673Z,20.40
2022-09-09T15:34:22.806Z,20.40
2022-09-09T15:36:50.991Z,20.40
2022-09-09T15:39:20.174Z,20.40
2022-09-09T15:41:49.787Z,20.40
2022-09-09T15:44:20.190Z,20.50
2022-09-09T15:46:51.642Z,20.50
2022-09-09T15:49:25.758Z,20.50
2022-09-09T15:51:55.507Z,20.60
2022-09-09T15:54:25.835Z,20.60
2022-09-09T15:56:58.775Z,20.60
2022-09-09T15:59:28.738Z,20.60
2022-09-09T16:01:56.984Z,20.70
2022-09-09T16:04:26.961Z,20.70
2022-09-09T16:06:56.568Z,20.70
2022-09-09T16:09:25.745Z,20.70
2022-09-09T16:11:54.177Z,20.70
2022-09-09T16:14:22.841Z,20.70
2022-09-09T16:16:50.882Z,20.70
2022-09-09T16:19:19.412Z,20.80
2022-09-09T16:21:50.629Z,20.80
2022-09-09T16:24:20.831Z,20.80
2022-09-09T16:26:50.792Z,20.80
2022-09-09T16:29:20.873Z,20.90
2022-09-09T16:31:49.407Z,20.90
2022-09-09T16:34:19.588Z,20.90
2022-09-09T16:36:50.342Z,20.90
2022-09-09T16:39:20.610Z,20.90
2022-09-09T16:41:50.020Z,21.00
2022-09-09T16:44:20.668Z,21.00
2022-09-09T16:46:56.647Z,21.00
2022-09-09T16:49:26.442Z,21.00
2022-09-09T16:51:59.248Z,21.00
2022-09-09T16:54:28.060Z,21.00
2022-09-09T16:56:56.282Z,21.00
2022-09-09T16:59:24.834Z,21.00
2022-09-09T17:01:54.457Z,21.00
2022-09-09T17:04:25.125Z,21.00
2022-09-09T17:06:56.835Z,21.00
2022-09-09T17:09:29.690Z,21.00
2022-09-09T17:11:57.897Z,21.00
2022-09-09T17:14:26.055Z,21.00
2022-09-09T17:16:54.232Z,21.00
2022-09-09T17:19:22.629Z,21.00
2022-09-09T17:22:14.951Z,20.90
2022-09-09T17:24:41.342Z,20.90
2022-09-09T17:27:09.873Z,20.90
2022-09-09T17:29:38.472Z,20.90
2022-09-09T17:32:08.121Z,20.90
2022-09-09T17:34:39.243Z,20.90
2022-09-09T17:37:07.941Z,20.90
2022-09-09T17:39:36.534Z,20.90
2022-09-09T17:42:08.337Z,20.90
2022-09-09T17:44:36.665Z,20.90
2022-09-09T17:47:07.045Z,20.80
2022-09-09T17:49:35.522Z,20.80
2022-09-09T17:52:04.174Z,20.80
2022-09-09T17:54:33.873Z,20.80
2022-09-09T17:57:02.095Z,20.70
2022-09-09T17:59:32.107Z,20.70
2022-09-09T18:02:00.284Z,20.80
2022-09-09T18:04:28.536Z,20.70
2022-09-09T18:06:58.287Z,20.70
2022-09-09T18:09:27.655Z,20.70
2022-09-09T18:11:57.552Z,20.60
2022-09-09T18:14:28.766Z,20.60
2022-09-09T18:16:58.684Z,20.60
2022-09-09T18:19:30.684Z,20.60
2022-09-09T18:22:01.878Z,20.60
2022-09-09T18:24:31.428Z,20.60
2022-09-09T18:26:59.506Z,20.60
2022-09-09T18:29:27.817Z,20.50
2022-09-09T18:31:57.988Z,20.50
2022-09-09T18:34:28.796Z,20.50
2022-09-09T18:36:57.260Z,20.50
2022-09-09T18:39:27.561Z,20.50
2022-09-09T18:41:59.460Z,20.50
2022-09-09T18:44:30.175Z,20.50
2022-09-09T18:46:59.717Z,20.50
2022-09-09T18:49:28.566Z,20.50
2022-09-09T18:51:56.987Z,20.50
2022-09-09T18:54:29.493Z,20.50
2022-09-09T18:56:58.078Z,20.50
2022-09-09T18:59:26.142Z,20.50
2022-09-09T19:01:54.799Z,20.50
2022-09-09T19:04:25.307Z,20.50
2022-09-09T19:06:57.733Z,20.40
2022-09-09T19:09:28.120Z,20.40
2022-09-09T19:11:56.467Z,20.50
2022-09-09T19:14:24.795Z,20.40
2022-09-09T19:16:53.603Z,20.40
2022-09-09T19:19:26.596Z,20.40
2022-09-09T19:21:57.389Z,20.40
2022-09-09T19:24:27.297Z,20.30
2022-09-09T19:26:57.715Z,20.30
2022-09-09T19:29:28.863Z,20.40
2022-09-09T19:32:42.374Z,20.30
2022-09-09T19:34:50.294Z,20.30
2022-09-09T19:37:18.977Z,20.30
2022-09-09T19:39:47.348Z,20.30
2022-09-09T19:42:16.075Z,20.30
2022-09-09T19:44:44.147Z,20.30
2022-09-09T19:47:14.253Z,20.30
2022-09-09T19:49:46.705Z,20.30
2022-09-09T19:52:17.276Z,20.20
2022-09-09T19:54:45.777Z,20.20
2022-09-09T19:57:17.120Z,20.20
2022-09-09T19:59:45.210Z,20.20
2022-09-09T20:02:15.575Z,20.20
2022-09-09T20:04:44.542Z,20.20
2022-09-09T20:07:12.716Z,20.10
2022-09-09T20:09:42.143Z,20.10
2022-09-09T20:12:10.294Z,20.00
2022-09-09T20:14:39.733Z,20.10
2022-09-09T20:17:08.539Z,20.00
2022-09-09T20:19:36.652Z,20.00
2022-09-09T20:22:04.940Z,20.00
2022-09-09T20:24:33.394Z,20.00
2022-09-09T20:27:02.745Z,19.90
2022-09-09T20:29:30.785Z,19.90
2022-09-09T20:31:58.837Z,19.90
2022-09-09T20:34:28.108Z,19.90
2022-09-09T20:36:57.601Z,19.90
2022-09-09T20:39:27.737Z,19.90
2022-09-09T20:41:55.778Z,19.90
2022-09-09T20:44:25.651Z,19.90
2022-09-09T20:46:57.029Z,19.90
2022-09-09T20:49:25.694Z,19.90
2022-09-09T20:51:55.096Z,19.90
2022-09-09T20:54:26.344Z,19.90
2022-09-09T20:56:55.511Z,19.90
2022-09-09T20:59:26.889Z,19.80
2022-09-09T21:01:56.801Z,19.80
2022-09-09T21:04:26.067Z,19.80
2022-09-09T21:06:54.452Z,19.90
2022-09-09T21:09:24.484Z,19.90
2022-09-09T21:11:53.471Z,19.90
2022-09-09T21:14:21.640Z,19.80
2022-09-09T21:16:51.759Z,19.80
2022-09-09T21:19:20.350Z,19.90
2022-09-09T21:21:48.774Z,19.90
2022-09-09T21:24:17.139Z,19.80
2022-09-09T21:26:45.604Z,19.80
2022-09-09T21:29:14.180Z,19.80
2022-09-09T21:31:43.183Z,19.80
2022-09-09T21:34:15.338Z,19.80
2022-09-09T21:36:43.452Z,19.80
2022-09-09T21:39:11.742Z,19.80
2022-09-09T21:41:40.021Z,19.80
2022-09-09T21:44:09.516Z,20.00
2022-09-09T21:46:37.824Z,19.80
2022-09-09T21:49:06.010Z,19.70
2022-09-09T21:51:35.478Z,19.80
2022-09-09T21:54:03.979Z,19.70
2022-09-09T21:56:32.134Z,19.70
2022-09-09T21:59:02.303Z,19.70
2022-09-09T22:01:33.394Z,19.70
2022-09-09T22:04:01.985Z,19.70
2022-09-09T22:06:30.127Z,19.70
2022-09-09T22:09:01.730Z,19.70
2022-09-09T22:11:30.523Z,19.70
2022-09-09T22:13:58.763Z,19.70
2022-09-09T22:16:27.020Z,19.70
2022-09-09T22:18:57.433Z,19.70
2022-09-09T22:21:27.129Z,19.70
2022-09-09T22:23:57.013Z,19.70
2022-09-09T22:26:28.327Z,19.70
2022-09-09T22:28:57.338Z,19.70
2022-09-09T22:31:26.414Z,19.60
2022-09-09T22:33:55.280Z,19.60
2022-09-09T22:36:24.068Z,19.60
2022-09-09T22:38:52.708Z,19.60
2022-09-09T22:41:21.861Z,19.60
2022-09-09T22:43:51.678Z,19.60
2022-09-09T22:46:20.976Z,19.60
2022-09-09T22:48:49.087Z,19.60
2022-09-09T22:51:17.434Z,19.60
2022-09-09T22:53:46.435Z,19.60
2022-09-09T22:56:17.092Z,19.50
2022-09-09T22:58:46.127Z,19.60
2022-09-09T23:01:19.183Z,19.50
2022-09-09T23:03:48.353Z,19.50
2022-09-09T23:06:22.634Z,19.50
2022-09-09T23:08:53.646Z,19.50
2022-09-09T23:11:21.927Z,19.50
2022-09-09T23:13:52.580Z,19.50
2022-09-09T23:16:24.923Z,19.50
2022-09-09T23:18:55.100Z,19.40
2022-09-09T23:21:26.303Z,19.50
2022-09-09T23:23:55.472Z,19.60
2022-09-09T23:26:25.253Z,19.40
2022-09-09T23:28:55.266Z,19.50
2022-09-09T23:31:25.691Z,19.50
2022-09-09T23:33:54.762Z,19.50
2022-09-09T23:36:24.937Z,19.40
2022-09-09T23:38:54.446Z,19.40
2022-09-09T23:41:22.717Z,19.40
2022-09-09T23:43:52.199Z,19.40
2022-09-09T23:46:22.322Z,19.40
2022-09-09T23:48:52.094Z,19.40
2022-09-09T23:51:23.780Z,19.40
2022-09-09T23:53:54.108Z,19.40
2022-09-09T23:56:24.952Z,19.40
2022-09-09T23:58:53.721Z,19.40
